Latest Coastal Weather Observations for Cape Byron

IDN60701

Issued at 3:41 am EST Monday 25 May 2015 (issued every 10 minutes, with the page automatically refreshed every 10 minutes)

About coastal observations | Map of coastal stations | Coastal observations for NSW | Marine services | Other Formats
Station Details ID: 058216 Name: CAPE BYRON AWS Lat: -28.64 Lon: 153.64 Height: 95.0 m
Data from the previous 72 hours. | See also: Recent months at Cape Byron
Date/Time
EST
Temp

°C
Wind Pressure Rain
since 9am
mm
Weather Cloud Vis
km
Sea
Height
m
Swell
Dir
 
Speed
knots
Gust
knots
hPa Trend Height
m
Period
s
Dir
25/03:30am 13.7 WSW 14 18 1029.7 - 3.4 - - - - - - -
25/03:00am 13.8 WSW 15 19 1029.5 - 3.4 - - - - - - -
25/02:30am 13.8 SW 16 20 1029.7 - 3.4 - - - - - - -
25/02:00am 14.1 SW 15 19 1029.9 - 3.4 - - - - - - -
25/01:30am 14.1 WSW 13 17 1029.9 - 3.4 - - - - - - -
25/01:00am 14.3 WSW 14 18 1029.9 - 3.4 - - - - - - -
25/12:30am 14.7 SW 13 16 1030.1 - 2.8 - - - - - - -
25/12:00am 14.9 SW 13 17 1030.1 - 1.6 Rain - - - - - -
 
Date/Time
EST
Temp

°C
Wind Pressure Rain
since 9am
mm
Weather Cloud Vis
km
Sea
Height
m
Swell
Dir
 
Speed
knots
Gust
knots
hPa Trend Height
m
Period
s
Dir
24/11:30pm 14.7 WSW 13 16 1030.2 - 1.2 - - - - - - -
24/11:00pm 15.0 WSW 9 12 1030.6 - 1.2 - - - - - - -
24/10:30pm 15.4 SW 11 14 1030.5 - 1.2 - - - - - - -
24/10:00pm 15.4 SW 13 15 1030.4 - 1.2 - - - - - - -
24/09:30pm 15.2 WSW 11 13 1030.7 - 1.2 - - - - - - -
24/09:00pm 15.5 WSW 14 17 1030.3 - 1.0 Recent precip. - - - - - -
24/08:30pm 15.9 SW 11 13 1030.1 - 1.0 - - - - - - -
24/08:00pm 16.4 SW 13 18 1029.9 - 0.8 - - - - - - -
24/07:30pm 16.2 SW 12 16 1029.7 - 0.8 - - - - - - -
24/07:00pm 16.2 SSW 10 16 1029.7 - 0.6 - - - - - - -
24/06:30pm 16.5 SSW 11 14 1029.7 - 0.6 - - - - - - -
24/06:00pm 17.0 SW 13 17 1029.4 - 0.0 - - - - - - -
24/05:30pm 18.3 SSW 20 25 1029.2 - 0.0 - - - - - - -
24/05:00pm 18.2 SSW 23 27 1028.6 - 0.0 - - - - - - -
24/04:47pm 18.0 SSW 15 29 1028.4 - 0.0 - - - - - - -
24/04:30pm 18.3 SSW 15 23 1028.4 - 0.0 - - - - - - -
24/04:00pm 18.6 SSW 22 28 1028.1 - 0.0 - - - - - - -
24/03:30pm 17.5 SW 15 23 1028.1 - 0.0 - - - - - - -
24/03:00pm 18.5 SSW 21 26 1028.0 - 0.0 - - - - - - -
24/02:30pm 18.7 SSW 20 26 1027.9 - 0.0 - - - - - - -
24/02:00pm 18.6 SSW 23 29 1027.7 - 0.0 - - - - - - -
24/01:30pm 18.4 SSW 23 29 1027.7 - 0.0 - - - - - - -
24/01:00pm 18.2 SSW 16 24 1027.9 - 0.0 - - - - - - -
24/12:30pm 17.4 SSW 19 25 1028.2 - 0.0 - - - - - - -
24/12:00pm 18.5 SSW 20 28 1028.2 - 0.0 - - - - - - -
24/11:30am 18.2 SSW 17 24 1028.8 - 0.0 - - - - - - -
24/11:00am 17.7 SW 18 25 1029.0 - 0.0 - - - - - - -
24/10:30am 17.0 SW 17 21 1029.1 - 0.0 - - - - - - -
24/10:16am 16.7 SW 15 27 1029.1 - 0.0 - - - - - - -
24/10:00am 15.9 SW 17 21 1029.2 - 0.0 - - - - - - -
24/09:30am 16.4 SW 17 22 1029.3 - 0.0 - - - - - - -
24/09:00am 15.3 WSW 18 23 1029.1 - 2.8 - - - - - - -
24/08:30am 14.4 WSW 16 22 1029.1 - 2.8 - - - - - - -
24/08:00am 13.7 WSW 17 22 1028.3 - 2.8 - - - - - - -
24/07:30am 13.6 WSW 19 22 1027.8 - 2.8 - - - - - - -
24/07:00am 13.7 SW 17 21 1027.5 - 2.8 - - - - - - -
24/06:30am 13.6 SW 18 27 1027.1 - 2.8 - - - - - - -
24/06:00am 13.4 SW 20 24 1027.0 - 2.8 Recent precip. - - - - - -
24/05:30am 13.3 WSW 19 23 1026.8 - 2.8 - - - - - - -
24/05:00am 13.3 WSW 15 19 1026.4 - 2.6 - - - - - - -
24/04:30am 13.3 SW 17 20 1026.2 - 2.6 - - - - - - -
24/04:00am 13.5 SW 16 22 1026.0 - 2.6 - - - - - - -
24/03:30am 13.6 SW 18 22 1026.0 - 2.6 - - - - - - -
24/03:00am 13.7 SW 17 22 1025.9 - 2.6 - - - - - - -
24/02:30am 13.6 SW 19 23 1025.8 - 2.6 - - - - - - -
24/02:00am 13.5 SW 16 20 1025.9 - 2.6 - - - - - - -
24/01:30am 13.6 SW 19 25 1025.9 - 2.6 - - - - - - -
24/01:00am 13.6 SW 17 20 1025.7 - 2.6 - - - - - - -
24/12:30am 13.8 SW 15 18 1025.7 - 2.6 - - - - - - -
24/12:00am 13.9 SW 15 20 1026.0 - 2.0 Rain - - - - - -
 
Date/Time
EST
Temp

°C
Wind Pressure Rain
since 9am
mm
Weather Cloud Vis
km
Sea
Height
m
Swell
Dir
 
Speed
knots
Gust
knots
hPa Trend Height
m
Period
s
Dir
23/11:30pm 14.2 SW 14 18 1026.2 - 1.6 - - - - - - -
23/11:00pm 14.2 SW 13 18 1026.1 - 1.6 - - - - - - -
23/10:42pm 14.4 SW 15 25 1026.2 - 1.6 - - - - - - -
23/10:30pm 14.4 SW 19 25 1026.2 - 1.6 - - - - - - -
23/10:00pm 14.1 SW 16 21 1026.1 - 1.4 - - - - - - -
23/09:30pm 14.2 SW 15 19 1026.3 - 1.4 - - - - - - -
23/09:00pm 14.6 SW 15 20 1026.1 - 1.4 Recent precip. - - - - - -
23/08:30pm 14.5 SW 15 21 1026.1 - 0.8 - - - - - - -
23/08:00pm 15.1 SW 17 22 1025.8 - 0.2 - - - - - - -
23/07:30pm 15.7 SW 18 25 1025.7 - 0.0 - - - - - - -
23/07:00pm 15.9 SW 14 19 1025.5 - 0.0 - - - - - - -
23/06:30pm 17.3 SW 13 18 1025.2 - 0.0 - - - - - - -
23/06:11pm 18.7 S 17 24 1025.1 - 0.0 - - - - - - -
23/06:00pm 18.8 SSE 20 25 1025.0 - 0.0 - - - - - - -
23/05:30pm 18.8 S 21 27 1024.7 - 0.0 - - - - - - -
23/05:00pm 18.9 S 24 30 1024.6 - 0.0 - - - - - - -
23/04:30pm 19.0 S 25 30 1024.3 - 0.0 - - - - - - -
23/04:00pm 18.9 S 25 31 1024.1 - 0.0 - - - - - - -
23/03:30pm 19.0 SSW 26 30 1024.2 - 0.0 - - - - - - -
23/03:00pm 19.0 S 24 30 1024.0 - 0.0 - - - - - - -
23/02:30pm 19.2 S 26 32 1023.8 - 0.0 - - - - - - -
23/02:00pm 19.0 S 27 35 1023.5 - 0.0 - - - - - - -
23/01:30pm 19.0 S 29 35 1023.4 - 0.0 - - - - - - -
23/01:00pm 18.8 SSW 28 33 1023.3 - 0.0 - - - - - - -
23/12:30pm 18.6 S 29 36 1023.6 - 0.0 - - - - - - -
23/12:02pm 18.8 SSW 27 41 1023.8 - 0.0 - - - - - - -
23/12:00pm 18.9 SSW 26 31 1023.8 - 0.0 - - - - - - -
23/11:30am 18.8 SSW 27 33 1024.0 - 0.0 - - - - - - -
23/11:00am 18.0 SSW 31 42 1024.0 - 0.0 - - - - - - -
23/10:54am 18.7 S 27 39 1024.0 - 0.0 - - - - - - -
23/10:48am 17.8 SSW 19 31 1024.2 - 0.0 - - - - - - -
23/10:30am 17.2 SW 20 31 1024.1 - 0.0 - - - - - - -
23/10:12am 17.0 SW 19 29 1024.1 - 0.0 - - - - - - -
23/10:00am 17.3 SW 23 31 1024.0 - 0.0 - - - - - - -
23/09:44am 17.2 SW 19 29 1023.8 - 0.0 - - - - - - -
23/09:30am 16.4 SW 20 26 1023.9 - 0.0 - - - - - - -
23/09:05am 15.7 SW 19 29 1023.6 - 0.0 - - - - - - -
23/09:00am 15.8 SW 19 27 1023.6 - 0.0 - - - - - - -
23/08:30am 15.4 SW 18 24 1023.2 - 0.0 - - - - - - -
23/08:26am 15.4 SW 18 28 1023.2 - 0.0 - - - - - - -
23/08:00am 15.1 SW 18 24 1022.9 - 0.0 - - - - - - -
23/07:34am 14.7 SW 18 28 1022.4 - 0.0 - - - - - - -
23/07:30am 14.6 SW 18 25 1022.3 - 0.0 - - - - - - -
23/07:00am 14.8 SW 21 28 1021.9 - 0.0 - - - - - - -
23/06:30am 14.7 SW 21 27 1021.4 - 0.0 - - - - - - -
23/06:00am 14.9 SW 22 30 1020.8 - 0.0 - - - - - - -
23/05:30am 14.7 SW 22 29 1020.3 - 0.0 - - - - - - -
23/05:00am 14.2 SW 21 28 1020.2 - 0.0 - - - - - - -
23/04:30am 14.2 SW 21 30 1019.9 - 0.0 - - - - - - -
23/04:00am 15.1 SW 21 28 1019.6 - 0.0 - - - - - - -
23/03:30am 15.1 SW 21 29 1019.4 - 0.0 - - - - - - -
23/03:00am 15.0 SW 19 26 1019.4 - 0.0 - - - - - - -
23/02:30am 15.4 SW 22 29 1019.1 - 0.0 - - - - - - -
23/02:00am 15.6 SW 22 30 1019.1 - 0.0 - - - - - - -
23/01:34am 15.3 SW 20 30 1019.0 - 0.0 - - - - - - -
23/01:30am 15.2 SW 22 30 1019.0 - 0.0 - - - - - - -
23/01:00am 16.1 SW 23 29 1018.9 - 0.0 - - - - - - -
23/12:30am 16.0 SW 22 29 1018.9 - 0.0 - - - - - - -
23/12:19am 16.1 SW 20 30 1019.0 - 0.0 - - - - - - -
23/12:00am 15.9 SW 21 29 1018.7 - 0.0 - - - - - - -
 
Date/Time
EST
Temp

°C
Wind Pressure Rain
since 9am
mm
Weather Cloud Vis
km
Sea
Height
m
Swell
Dir
 
Speed
knots
Gust
knots
hPa Trend Height
m
Period
s
Dir
22/11:34pm 15.9 SW 23 34 1018.2 - 0.0 - - - - - - -
22/11:30pm 15.9 SW 23 32 1018.4 - 0.0 - - - - - - -
22/11:01pm 16.1 SW 23 33 1018.3 - 0.0 - - - - - - -
22/11:00pm 16.1 SW 24 33 1018.3 - 0.0 - - - - - - -
22/10:44pm 16.0 SW 21 31 1018.3 - 0.0 - - - - - - -
22/10:30pm 16.0 SW 20 29 1018.2 - 0.0 - - - - - - -
22/10:05pm 16.5 SW 18 29 1018.1 - 0.0 - - - - - - -
22/10:00pm 16.5 SW 18 24 1018.0 - 0.0 - - - - - - -
22/09:41pm 16.7 SW 22 32 1017.6 - 0.0 - - - - - - -
22/09:30pm 16.6 SW 18 26 1017.8 - 0.0 - - - - - - -
22/09:26pm 16.5 SW 19 29 1017.6 - 0.0 - - - - - - -
22/09:00pm 16.3 SW 20 27 1017.1 - 0.0 - - - - - - -
22/08:30pm 16.1 WSW 19 25 1017.2 - 0.0 - - - - - - -
22/08:00pm 16.1 WSW 17 25 1016.8 - 0.0 - - - - - - -
22/07:30pm 15.8 W 15 21 1016.3 - 0.0 - - - - - - -
22/07:00pm 15.8 W 16 21 1015.8 - 0.0 - - - - - - -
22/06:30pm 15.8 W 12 18 1015.6 - 0.0 - - - - - - -
22/06:00pm 16.0 W 10 14 1015.3 - 0.0 - - - - - - -
22/05:30pm 16.2 WSW 11 15 1015.1 - 0.0 - - - - - - -
22/05:00pm 16.6 W 11 17 1014.7 - 0.0 - - - - - - -
22/04:30pm 17.1 W 14 19 1014.4 - 0.0 - - - - - - -
22/04:00pm 17.9 W 15 22 1014.0 - 0.0 - - - - - - -
22/03:30pm 18.1 W 13 23 1013.7 - 0.0 - - - - - - -
22/03:05pm 18.4 W 17 27 1013.5 - 0.0 - - - - - - -
22/03:00pm 18.4 W 16 25 1013.6 - 0.0 - - - - - - -
22/02:43pm 18.3 W 15 31 1013.5 - 0.0 - - - - - - -
22/02:30pm 18.1 W 13 21 1013.7 - 0.0 - - - - - - -
22/02:06pm 18.1 W 17 28 1013.7 - 0.0 - - - - - - -
22/02:00pm 18.2 WSW 17 25 1013.7 - 0.0 - - - - - - -
22/01:43pm 18.1 SW 16 26 1013.7 - 0.0 - - - - - - -
22/01:30pm 18.0 WSW 15 23 1013.7 - 0.0 - - - - - - -
22/01:04pm 17.8 W 17 27 1013.9 - 0.0 - - - - - - -
22/01:00pm 17.7 W 18 27 1013.9 - 0.0 - - - - - - -
22/12:30pm 17.7 W 15 29 1014.2 - 0.0 - - - - - - -
22/12:00pm 17.3 W 15 26 1014.6 - 0.0 - - - - - - -
22/11:53am 17.2 W 17 27 1014.7 - 0.0 - - - - - - -
22/11:30am 16.9 W 18 25 1014.8 - 0.0 - - - - - - -
22/11:05am 16.8 W 15 26 1015.1 - 0.0 - - - - - - -
22/11:00am 16.8 W 14 22 1015.2 - 0.0 - - - - - - -
22/10:31am 16.2 W 16 26 1015.5 - 0.0 - - - - - - -
22/10:30am 16.3 W 16 24 1015.5 - 0.0 - - - - - - -
22/10:04am 16.0 WNW 15 25 1016.0 - 0.0 - - - - - - -
22/10:00am 15.9 W 16 25 1016.0 - 0.0 - - - - - - -
22/09:30am 15.9 W 16 26 1015.9 - 0.0 - - - - - - -
22/09:09am 16.0 WNW 15 25 1015.7 - 0.0 - - - - - - -
22/09:00am 16.0 W 17 25 1015.5 - 4.0 - - - - - - -
22/08:45am 16.0 W 16 27 1015.4 - 4.0 - - - - - - -
22/08:30am 16.0 WNW 13 20 1015.3 - 4.0 - - - - - - -
22/08:00am 15.5 WNW 11 16 1015.0 - 4.0 - - - - - - -
22/07:30am 14.8 WNW 7 11 1015.1 - 4.0 - - - - - - -
22/07:00am 15.2 WNW 11 14 1015.1 - 4.0 - - - - - - -
22/06:30am 15.6 W 14 19 1014.8 - 4.0 - - - - - - -
22/06:00am 15.4 W 8 13 1014.9 - 4.0 - - - - - - -
22/05:30am 15.9 WSW 4 6 1014.9 - 4.0 - - - - - - -
22/05:00am 15.9 WNW 9 12 1014.6 - 4.0 - - - - - - -
22/04:30am 16.0 WNW 9 13 1014.5 - 4.0 - - - - - - -
22/04:00am 15.9 WNW 8 11 1014.3 - 4.0 - - - - - - -

Other Formats:

Comma delimited format used in spreadsheet applications
http://www.bom.gov.au/fwo/IDN60701/IDN60701.94599.axf

JavaScript Object Notation format (JSON) in row-major order
http://www.bom.gov.au/fwo/IDN60701/IDN60701.94599.json